Time;durP1;ratioP1;P1;durP2;ratioP2;P2;SDS_P1;SDS_P2;PMS_P1;PMS_P2;Temp;Humidity;BMP_temperature;BMP_pressure;BME280_temperature;BME280_humidity;BME280_pressure;Samples;Min_cycle;Max_cycle;Signal;HPM_P1;HPM_P2
2021/01/16 00:10:56;;;;;;;17.43;14.53;;;3.40;99.00;;;;;;10402823;28;20243;-84
2021/01/16 00:15:58;;;;;;;15.40;13.60;;;3.40;99.10;;;;;;10376694;28;20225;-83
2021/01/16 00:21:00;;;;;;;18.43;15.77;;;3.40;99.20;;;;;;10362466;28;20729;-82
2021/01/16 00:26:02;;;;;;;16.97;14.60;;;3.40;98.90;;;;;;10385026;28;20360;-81
2021/01/16 00:31:04;;;;;;;17.10;14.83;;;3.40;98.90;;;;;;10358070;28;20278;-84
2021/01/16 00:36:08;;;;;;;16.10;14.40;;;3.40;99.30;;;;;;10366138;28;20654;-83
2021/01/16 00:41:10;;;;;;;18.37;15.57;;;3.40;98.70;;;;;;10385119;28;20233;-82
2021/01/16 00:46:11;;;;;;;17.03;14.50;;;3.40;99.20;;;;;;10348195;28;20237;-85
2021/01/16 00:51:14;;;;;;;18.20;15.63;;;3.40;98.90;;;;;;10359309;28;20317;-81
2021/01/16 00:56:19;;;;;;;17.70;14.53;;;3.40;98.90;;;;;;10362992;28;20206;-81
2021/01/16 01:01:38;;;;;;;18.67;15.07;;;3.40;98.90;;;;;;10354692;28;20233;-82
2021/01/16 01:06:42;;;;;;;17.33;15.27;;;3.40;99.00;;;;;;10397262;28;20198;-81
2021/01/16 01:11:44;;;;;;;18.57;15.67;;;3.40;98.80;;;;;;10357019;28;20237;-84
2021/01/16 01:16:46;;;;;;;19.03;15.70;;;3.40;99.00;;;;;;10392156;28;20194;-82
2021/01/16 01:21:49;;;;;;;18.80;15.70;;;3.40;98.70;;;;;;10381246;28;20214;-81
2021/01/16 01:26:50;;;;;;;19.87;16.83;;;3.40;98.70;;;;;;10350673;28;20685;-84
2021/01/16 01:31:52;;;;;;;18.30;15.83;;;3.30;98.70;;;;;;10371193;28;20265;-82
2021/01/16 01:36:55;;;;;;;17.77;14.63;;;3.30;98.70;;;;;;10355967;28;20202;-83
2021/01/16 01:41:56;;;;;;;17.53;14.80;;;3.40;98.60;;;;;;10356266;28;20710;-82
2021/01/16 01:46:59;;;;;;;17.83;15.93;;;3.40;98.60;;;;;;10371445;28;20213;-81
2021/01/16 01:52:02;;;;;;;22.30;17.10;;;3.40;98.80;;;;;;10384304;28;20226;-81
2021/01/16 01:57:06;;;;;;;18.03;15.60;;;3.40;98.50;;;;;;10380036;28;20291;-82
2021/01/16 02:02:10;;;;;;;17.40;15.30;;;3.40;98.30;;;;;;10390785;28;20237;-84
2021/01/16 02:07:24;;;;;;;18.97;16.40;;;3.40;98.40;;;;;;10377958;28;20625;-81
2021/01/16 02:12:26;;;;;;;20.73;15.70;;;3.40;98.50;;;;;;10362359;28;20238;-81
2021/01/16 02:17:30;;;;;;;19.23;16.00;;;3.40;99.10;;;;;;10364312;28;20721;-84
2021/01/16 02:22:37;;;;;;;20.33;16.67;;;3.50;98.80;;;;;;10362236;28;20225;-87
2021/01/16 02:27:51;;;;;;;19.40;16.23;;;3.40;98.70;;;;;;10396320;28;20199;-84
2021/01/16 02:32:54;;;;;;;20.70;17.83;;;3.40;98.80;;;;;;10370554;28;20221;-83
2021/01/16 02:38:12;;;;;;;19.53;16.60;;;3.50;99.20;;;;;;10392794;28;20289;-82
2021/01/16 02:43:32;;;;;;;22.43;17.43;;;3.50;98.30;;;;;;10348054;28;20238;-81
2021/01/16 02:48:49;;;;;;;20.30;16.60;;;3.50;98.60;;;;;;10395516;28;20202;-81
2021/01/16 02:53:53;;;;;;;22.93;16.83;;;3.50;98.70;;;;;;10366169;28;20222;-84
2021/01/16 02:58:56;;;;;;;19.10;16.37;;;3.50;98.60;;;;;;10346043;28;20203;-82
2021/01/16 03:03:57;;;;;;;21.90;17.80;;;3.50;98.40;;;;;;10378415;28;20282;-84
2021/01/16 03:09:03;;;;;;;22.80;17.90;;;3.50;98.70;;;;;;10361647;28;20234;-84
2021/01/16 03:14:08;;;;;;;19.93;16.57;;;3.50;98.60;;;;;;10362013;28;20241;-84
2021/01/16 03:19:17;;;;;;;19.23;16.17;;;3.50;99.00;;;;;;10389226;28;20256;-85
2021/01/16 03:24:18;;;;;;;19.70;16.27;;;3.50;99.20;;;;;;10384406;28;20209;-83
2021/01/16 03:29:21;;;;;;;17.40;14.83;;;3.50;98.80;;;;;;10374593;28;20226;-82
2021/01/16 03:34:23;;;;;;;19.00;16.33;;;3.50;98.30;;;;;;10377677;28;20223;-81
2021/01/16 03:39:24;;;;;;;19.80;16.57;;;3.50;98.10;;;;;;10380838;28;20284;-81
2021/01/16 03:44:27;;;;;;;17.60;15.70;;;3.50;98.70;;;;;;10357650;28;20626;-82
2021/01/16 03:49:29;;;;;;;19.73;17.20;;;3.50;98.80;;;;;;10367448;28;20706;-84
2021/01/16 03:54:31;;;;;;;21.90;17.93;;;3.50;98.90;;;;;;10380466;28;20636;-83
2021/01/16 03:59:33;;;;;;;20.97;17.50;;;3.40;98.10;;;;;;10377719;28;20229;-84
2021/01/16 04:04:35;;;;;;;21.47;18.33;;;3.40;98.90;;;;;;10359124;28;20237;-84
2021/01/16 04:09:37;;;;;;;23.87;18.03;;;3.40;98.60;;;;;;10378749;28;20232;-84
2021/01/16 04:14:39;;;;;;;20.73;17.30;;;3.40;98.80;;;;;;10361776;28;20312;-84
2021/01/16 04:19:41;;;;;;;24.23;18.63;;;3.40;98.90;;;;;;10346080;28;20705;-84
2021/01/16 04:24:42;;;;;;;22.57;17.90;;;3.30;99.10;;;;;;10367893;28;20234;-83
2021/01/16 04:29:45;;;;;;;25.60;19.50;;;3.40;98.90;;;;;;10347237;28;20300;-84
2021/01/16 04:34:46;;;;;;;24.97;19.93;;;3.30;99.10;;;;;;10379047;28;20699;-84
2021/01/16 04:39:48;;;;;;;22.33;18.77;;;3.30;99.00;;;;;;10362246;28;20314;-84
2021/01/16 04:44:53;;;;;;;22.30;18.63;;;3.30;98.90;;;;;;10387183;28;20253;-84
2021/01/16 04:49:58;;;;;;;24.97;19.00;;;3.40;99.10;;;;;;10380172;28;20489;-84
2021/01/16 04:55:01;;;;;;;24.27;19.33;;;3.40;99.10;;;;;;10357919;28;20272;-84
2021/01/16 05:00:06;;;;;;;22.43;18.30;;;3.40;98.50;;;;;;10397523;28;20267;-87
2021/01/16 05:05:10;;;;;;;25.27;20.30;;;3.40;98.20;;;;;;10397817;28;20621;-81
2021/01/16 05:10:13;;;;;;;23.03;19.00;;;3.40;98.40;;;;;;10370912;28;20229;-85
2021/01/16 05:15:21;;;;;;;25.10;18.30;;;3.40;98.90;;;;;;10375124;28;20301;-84
2021/01/16 05:20:24;;;;;;;21.60;17.50;;;3.40;98.90;;;;;;10358393;28;20248;-82
2021/01/16 05:25:31;;;;;;;23.10;18.10;;;3.40;98.20;;;;;;10371555;28;20205;-84
2021/01/16 05:30:54;;;;;;;23.30;18.63;;;3.40;98.10;;;;;;10370331;28;20219;-82
2021/01/16 05:35:57;;;;;;;21.37;17.30;;;3.40;97.90;;;;;;10387726;28;20644;-82
2021/01/16 05:40:59;;;;;;;20.10;17.63;;;3.40;97.90;;;;;;10361449;28;20217;-83
2021/01/16 05:46:04;;;;;;;22.90;16.40;;;3.40;97.90;;;;;;10397077;28;20206;-83
2021/01/16 05:51:06;;;;;;;20.10;17.07;;;3.40;97.90;;;;;;10392432;28;20226;-82
2021/01/16 05:56:11;;;;;;;20.50;17.80;;;3.30;97.70;;;;;;10353206;28;20219;-84
2021/01/16 06:01:23;;;;;;;22.40;18.40;;;3.40;97.60;;;;;;10353013;28;20235;-83
2021/01/16 06:06:25;;;;;;;22.63;18.63;;;3.40;98.10;;;;;;10368768;28;20293;-82
2021/01/16 06:11:36;;;;;;;23.87;18.70;;;3.30;98.00;;;;;;10363970;28;20222;-82
2021/01/16 06:16:49;;;;;;;23.60;19.50;;;3.30;97.70;;;;;;10363765;28;20198;-83
2021/01/16 06:21:52;;;;;;;22.00;18.57;;;3.20;97.50;;;;;;10375110;28;20721;-81
2021/01/16 06:26:55;;;;;;;23.97;19.87;;;3.20;97.70;;;;;;10381472;28;20191;-83
2021/01/16 06:32:08;;;;;;;23.20;18.80;;;3.20;97.50;;;;;;10362448;28;20702;-83
2021/01/16 06:37:11;;;;;;;21.10;18.00;;;3.30;97.80;;;;;;10379162;28;20297;-83
2021/01/16 06:42:20;;;;;;;22.93;18.60;;;3.30;97.70;;;;;;10362200;28;20281;-85
2021/01/16 06:47:27;;;;;;;22.50;18.80;;;3.40;98.20;;;;;;10348625;28;20310;-81
2021/01/16 06:52:33;;;;;;;22.57;17.97;;;3.40;98.10;;;;;;10395868;28;20218;-82
2021/01/16 06:57:35;;;;;;;27.80;20.10;;;3.40;97.70;;;;;;10364693;28;20542;-81
2021/01/16 07:02:38;;;;;;;24.27;18.80;;;3.40;98.00;;;;;;10367513;28;20265;-82
2021/01/16 07:07:40;;;;;;;24.07;18.20;;;3.40;98.00;;;;;;10320419;28;20288;-83
2021/01/16 07:12:43;;;;;;;20.43;17.20;;;3.40;97.80;;;;;;10335171;28;20323;-82
2021/01/16 07:17:47;;;;;;;24.70;19.97;;;3.40;97.10;;;;;;10335647;28;20191;-82
2021/01/16 07:22:52;;;;;;;22.07;17.80;;;3.40;97.40;;;;;;10318826;28;20282;-86
2021/01/16 07:27:53;;;;;;;25.97;17.70;;;3.40;98.20;;;;;;10303533;28;20211;-82
2021/01/16 07:33:01;;;;;;;26.07;20.70;;;3.40;97.90;;;;;;10318359;28;20271;-83
2021/01/16 07:38:06;;;;;;;21.63;18.27;;;3.40;98.20;;;;;;10319397;28;20203;-81
2021/01/16 07:43:34;;;;;;;22.13;18.13;;;3.50;98.20;;;;;;10303274;28;20282;-84
2021/01/16 07:48:49;;;;;;;22.40;17.87;;;3.50;97.90;;;;;;10305337;28;20571;-85
2021/01/16 07:53:55;;;;;;;24.07;19.40;;;3.50;97.20;;;;;;10309582;28;20750;-83
2021/01/16 07:59:10;;;;;;;21.00;17.70;;;3.50;97.50;;;;;;10306913;28;20634;-83
2021/01/16 08:04:37;;;;;;;26.10;20.20;;;3.50;97.80;;;;;;10328120;28;20687;-82
2021/01/16 08:09:53;;;;;;;25.37;19.00;;;3.40;97.80;;;;;;10332405;28;20707;-84
2021/01/16 08:14:55;;;;;;;25.03;18.80;;;3.30;97.60;;;;;;10333967;28;20251;-85
2021/01/16 08:20:19;;;;;;;22.97;19.13;;;3.30;97.70;;;;;;10330924;28;20710;-84
2021/01/16 08:31:39;;;;;;;21.00;18.47;;;3.30;97.10;;;;;;10350804;28;20250;-84
2021/01/16 08:43:28;;;;;;;22.90;19.10;;;3.30;98.10;;;;;;10311475;28;20214;-84
2021/01/16 08:48:33;;;;;;;24.50;19.00;;;3.20;97.20;;;;;;10339404;28;20233;-86
2021/01/16 09:13:59;;;;;;;21.67;17.50;;;3.20;98.20;;;;;;10177805;29;20244;-85
2021/01/16 09:25:38;;;;;;;19.73;17.63;;;3.10;98.00;;;;;;10184052;29;20248;-85
2021/01/16 09:30:48;;;;;;;22.43;19.27;;;3.10;98.20;;;;;;10317048;28;20231;-86
2021/01/16 09:35:54;;;;;;;21.70;17.37;;;3.10;98.60;;;;;;10326808;28;20226;-85
2021/01/16 09:47:32;;;;;;;17.83;15.90;;;3.30;98.80;;;;;;10312580;28;20211;-85
2021/01/16 09:53:11;;;;;;;18.90;15.50;;;3.30;98.40;;;;;;10332420;28;20215;-85
2021/01/16 10:12:02;;;;;;;16.10;12.77;;;3.70;97.90;;;;;;10315559;28;20234;-85
2021/01/16 10:17:21;;;;;;;16.17;13.77;;;3.80;97.30;;;;;;10312802;28;20210;-84
2021/01/16 11:14:30;;;;;;;11.70;9.40;;;4.50;93.90;;;;;;10112456;29;20237;-84
2021/01/16 11:19:40;;;;;;;16.03;13.50;;;4.60;93.20;;;;;;10328229;28;20223;-85
2021/01/16 11:25:38;;;;;;;17.53;14.83;;;4.50;93.60;;;;;;10356673;28;20205;-85
2021/01/16 11:30:53;;;;;;;19.30;14.93;;;4.60;94.80;;;;;;10391893;28;20630;-85
2021/01/16 11:36:19;;;;;;;17.93;15.97;;;4.70;94.90;;;;;;10407925;28;20336;-85
2021/01/16 11:42:02;;;;;;;20.67;16.67;;;4.70;95.40;;;;;;10423449;28;20237;-84
2021/01/16 12:00:49;;;;;;;14.97;13.47;;;4.80;94.60;;;;;;10233479;28;20223;-85
2021/01/16 12:05:55;;;;;;;15.23;12.77;;;4.70;93.80;;;;;;10256091;28;20233;-85
2021/01/16 12:17:09;;;;;;;17.40;15.60;;;4.60;93.60;;;;;;10365383;28;20259;-84
2021/01/16 12:22:26;;;;;;;16.73;14.57;;;4.60;93.70;;;;;;10364041;28;20706;-85
2021/01/16 12:27:31;;;;;;;16.20;14.50;;;4.60;94.20;;;;;;10346812;28;20485;-85
2021/01/16 12:32:41;;;;;;;17.23;14.23;;;4.60;94.30;;;;;;10347949;28;20236;-84
2021/01/16 12:37:57;;;;;;;17.60;15.27;;;4.60;93.90;;;;;;10345412;28;20207;-84
2021/01/16 12:43:15;;;;;;;17.67;15.73;;;4.60;93.60;;;;;;10328248;28;20716;-85
2021/01/16 12:48:43;;;;;;;20.30;16.90;;;4.70;93.40;;;;;;10392576;28;20205;-85
2021/01/16 13:30:11;;;;;;;20.50;17.00;;;4.50;92.70;;;;;;10377250;28;20745;-84
2021/01/16 13:35:35;;;;;;;18.33;16.50;;;4.50;93.10;;;;;;10355747;28;20223;-85
2021/01/16 13:46:43;;;;;;;19.23;16.80;;;4.50;93.80;;;;;;10336402;28;20199;-85
2021/01/16 13:58:03;;;;;;;22.87;16.73;;;4.50;93.70;;;;;;10339902;28;20233;-86
2021/01/16 14:09:07;;;;;;;20.13;16.90;;;4.40;93.80;;;;;;10361104;28;20202;-85
2021/01/16 14:14:31;;;;;;;19.30;17.30;;;4.30;94.00;;;;;;10357911;28;20627;-85
2021/01/16 14:25:41;;;;;;;21.67;17.90;;;4.20;94.30;;;;;;10366043;28;20773;-85
2021/01/16 14:30:47;;;;;;;16.73;14.93;;;4.20;93.90;;;;;;10374219;28;20234;-84
2021/01/16 14:35:52;;;;;;;18.53;16.50;;;4.10;92.90;;;;;;10359090;28;20284;-84
2021/01/16 14:41:25;;;;;;;22.17;17.03;;;4.10;93.30;;;;;;10355645;28;20230;-84
2021/01/16 14:52:32;;;;;;;20.90;17.50;;;4.10;93.80;;;;;;10349059;28;21081;-85
2021/01/16 14:57:43;;;;;;;23.80;19.00;;;4.00;94.10;;;;;;10368049;28;20241;-85
2021/01/16 15:03:47;;;;;;;21.20;17.53;;;4.00;93.80;;;;;;10369497;28;20222;-84
2021/01/16 15:08:52;;;;;;;18.50;16.50;;;4.00;93.20;;;;;;10350683;28;20204;-85
2021/01/16 15:14:22;;;;;;;20.33;18.10;;;3.90;93.80;;;;;;10341147;28;20223;-84
2021/01/16 15:31:49;;;;;;;18.77;15.67;;;3.80;93.40;;;;;;10356119;28;20309;-85
2021/01/16 15:37:03;;;;;;;16.37;14.07;;;3.70;93.90;;;;;;10357543;28;20306;-84
2021/01/16 15:42:21;;;;;;;17.53;15.00;;;3.70;93.50;;;;;;10363529;28;20709;-85
2021/01/16 15:47:48;;;;;;;17.70;15.80;;;3.70;93.70;;;;;;10369180;28;20278;-85
2021/01/16 15:52:52;;;;;;;17.23;14.90;;;3.70;93.90;;;;;;10386340;28;20233;-85
2021/01/16 15:57:55;;;;;;;17.90;16.00;;;3.60;93.50;;;;;;10383381;28;20610;-85
2021/01/16 16:03:09;;;;;;;17.17;15.37;;;3.50;93.10;;;;;;10363582;28;20226;-86
2021/01/16 16:08:15;;;;;;;16.97;14.57;;;3.50;93.30;;;;;;10381135;28;20195;-83
2021/01/16 16:13:17;;;;;;;14.80;13.20;;;3.40;93.50;;;;;;10378597;28;20222;-83
2021/01/16 16:18:21;;;;;;;15.73;14.03;;;3.40;93.30;;;;;;10363116;28;20285;-83
2021/01/16 16:23:23;;;;;;;15.70;14.07;;;3.30;93.40;;;;;;10361374;28;20246;-83
2021/01/16 16:28:25;;;;;;;15.43;13.03;;;3.30;92.70;;;;;;10361381;28;20219;-83
2021/01/16 16:33:28;;;;;;;16.33;14.00;;;3.20;92.90;;;;;;10354159;28;20217;-83
2021/01/16 16:38:29;;;;;;;17.50;14.40;;;3.20;93.40;;;;;;10377132;28;20214;-83
2021/01/16 16:43:31;;;;;;;15.80;13.40;;;3.10;93.10;;;;;;10343678;28;20249;-82
2021/01/16 16:48:34;;;;;;;17.70;14.70;;;3.10;93.00;;;;;;10372602;28;20209;-83
2021/01/16 16:53:35;;;;;;;17.63;15.77;;;3.00;92.20;;;;;;10390961;28;20233;-82
2021/01/16 16:58:37;;;;;;;19.33;16.20;;;3.00;93.50;;;;;;10385155;28;20281;-83
2021/01/16 17:03:39;;;;;;;16.87;15.07;;;2.90;93.00;;;;;;10377205;28;20612;-82
2021/01/16 17:08:45;;;;;;;19.00;16.60;;;2.90;92.80;;;;;;10362084;28;20210;-83
2021/01/16 17:13:47;;;;;;;17.57;15.53;;;2.80;92.60;;;;;;10398326;28;20219;-83
2021/01/16 17:18:54;;;;;;;17.33;15.43;;;2.70;92.90;;;;;;10376386;28;20202;-83
2021/01/16 17:23:56;;;;;;;19.60;16.30;;;2.50;93.30;;;;;;10377284;28;20681;-82
2021/01/16 17:28:58;;;;;;;20.23;17.00;;;2.40;93.30;;;;;;10363579;28;20218;-83
2021/01/16 17:34:00;;;;;;;18.40;15.77;;;2.30;93.60;;;;;;10358575;28;20234;-83
2021/01/16 17:39:03;;;;;;;23.63;20.00;;;2.20;93.70;;;;;;10355927;28;20246;-81
2021/01/16 17:44:06;;;;;;;24.10;19.77;;;2.20;93.80;;;;;;10357364;28;20292;-84
2021/01/16 17:49:10;;;;;;;22.70;19.00;;;2.20;93.80;;;;;;10370172;28;20226;-83
2021/01/16 17:54:13;;;;;;;18.80;15.67;;;2.20;94.10;;;;;;10351352;28;20284;-82
2021/01/16 17:59:15;;;;;;;18.07;16.17;;;2.20;93.80;;;;;;10363960;28;20223;-81
2021/01/16 18:04:17;;;;;;;18.33;15.90;;;2.20;93.80;;;;;;10349125;28;20264;-82
2021/01/16 18:09:19;;;;;;;18.90;15.57;;;2.20;93.70;;;;;;10369613;28;20253;-82
2021/01/16 18:14:21;;;;;;;18.60;15.23;;;2.10;93.50;;;;;;10372582;28;20249;-83
2021/01/16 18:19:24;;;;;;;19.23;16.00;;;2.10;93.70;;;;;;10376314;28;20226;-83
2021/01/16 18:24:26;;;;;;;17.83;15.13;;;2.10;93.70;;;;;;10388852;28;20682;-83
2021/01/16 18:29:27;;;;;;;18.67;16.67;;;2.10;93.80;;;;;;10414291;28;20233;-83
2021/01/16 18:34:30;;;;;;;16.93;14.30;;;2.20;93.60;;;;;;10398616;28;20839;-83
2021/01/16 18:39:31;;;;;;;14.70;13.13;;;2.20;92.90;;;;;;10350228;28;20226;-82
2021/01/16 18:44:33;;;;;;;17.03;13.17;;;2.20;92.90;;;;;;10385532;28;20598;-83
2021/01/16 18:49:35;;;;;;;19.23;15.60;;;2.10;92.40;;;;;;10365480;28;20223;-83
2021/01/16 18:54:37;;;;;;;16.13;14.10;;;2.10;92.70;;;;;;10369984;28;20257;-83
2021/01/16 18:59:39;;;;;;;16.30;13.83;;;2.10;92.40;;;;;;10370696;28;20258;-83
2021/01/16 19:04:41;;;;;;;15.13;13.30;;;2.00;92.40;;;;;;10352534;28;20577;-82
2021/01/16 19:09:43;;;;;;;14.00;12.50;;;2.00;92.70;;;;;;10336547;28;20230;-83
2021/01/16 19:14:45;;;;;;;15.33;13.00;;;2.00;92.40;;;;;;10373358;28;20230;-83
2021/01/16 19:19:47;;;;;;;15.40;13.50;;;2.00;92.20;;;;;;10353536;28;20257;-83
2021/01/16 19:24:49;;;;;;;14.77;13.00;;;2.00;92.80;;;;;;10350287;28;20199;-82
2021/01/16 19:29:50;;;;;;;14.47;12.93;;;2.00;92.50;;;;;;10394988;28;20237;-82
2021/01/16 19:34:53;;;;;;;14.73;12.87;;;2.10;93.10;;;;;;10429675;28;20252;-82
2021/01/16 19:39:55;;;;;;;13.13;11.67;;;2.20;93.40;;;;;;10344842;28;20227;-82
2021/01/16 19:44:56;;;;;;;26.03;21.17;;;2.20;92.90;;;;;;10367803;28;20697;-82
2021/01/16 19:49:59;;;;;;;15.43;13.83;;;2.30;91.90;;;;;;10359487;28;20241;-82
2021/01/16 19:55:00;;;;;;;14.20;12.67;;;2.30;92.30;;;;;;10357501;28;20313;-83
2021/01/16 20:00:03;;;;;;;13.77;12.37;;;2.40;92.10;;;;;;10335071;28;20261;-83
2021/01/16 20:05:09;;;;;;;12.63;11.33;;;2.40;92.20;;;;;;10356916;28;20210;-83
2021/01/16 20:10:11;;;;;;;14.70;11.53;;;2.50;91.80;;;;;;10374803;28;20253;-82
2021/01/16 20:15:14;;;;;;;14.90;12.70;;;2.50;90.90;;;;;;10398751;28;20237;-83
2021/01/16 20:20:17;;;;;;;12.80;10.73;;;2.50;90.60;;;;;;10363773;28;20222;-82
2021/01/16 20:25:18;;;;;;;16.00;12.80;;;2.40;91.60;;;;;;10354652;28;20293;-82
2021/01/16 20:30:21;;;;;;;14.03;12.53;;;2.40;91.30;;;;;;10376069;28;20963;-82
2021/01/16 20:35:23;;;;;;;13.07;11.57;;;2.30;90.30;;;;;;10349329;28;20222;-83
2021/01/16 20:40:25;;;;;;;13.37;11.97;;;2.20;90.60;;;;;;10350867;28;20225;-83
2021/01/16 20:45:26;;;;;;;13.67;11.90;;;2.20;90.60;;;;;;10387633;28;20318;-83
2021/01/16 20:50:29;;;;;;;14.97;13.37;;;2.20;91.50;;;;;;10332031;28;20317;-82
2021/01/16 20:55:31;;;;;;;16.60;13.37;;;2.20;91.30;;;;;;10333989;28;20317;-83
2021/01/16 21:00:32;;;;;;;17.70;15.17;;;2.20;90.50;;;;;;10351320;28;20226;-83
2021/01/16 21:05:35;;;;;;;13.90;11.93;;;2.10;90.70;;;;;;10390263;28;20269;-83
2021/01/16 21:10:37;;;;;;;15.00;12.20;;;2.10;90.90;;;;;;10349239;28;20316;-82
2021/01/16 21:15:38;;;;;;;14.20;12.73;;;2.10;91.10;;;;;;10374535;28;20226;-83
2021/01/16 21:20:41;;;;;;;13.80;12.40;;;2.20;90.50;;;;;;10388651;28;20222;-82
2021/01/16 21:25:45;;;;;;;14.63;12.77;;;2.10;90.80;;;;;;10360845;28;20233;-82
2021/01/16 21:30:47;;;;;;;14.20;12.70;;;2.20;90.60;;;;;;10361666;28;20257;-82
2021/01/16 21:35:49;;;;;;;14.93;12.60;;;2.20;90.20;;;;;;10348194;28;20234;-83
2021/01/16 21:40:51;;;;;;;15.13;13.40;;;2.20;90.90;;;;;;10353154;28;20312;-83
2021/01/16 21:45:52;;;;;;;16.00;13.47;;;2.20;90.20;;;;;;10376312;28;20198;-82
2021/01/16 21:50:55;;;;;;;15.07;12.90;;;2.20;89.50;;;;;;10366150;28;20603;-82
2021/01/16 21:55:57;;;;;;;14.70;13.10;;;2.20;90.70;;;;;;10367511;28;20237;-83
2021/01/16 22:00:58;;;;;;;16.67;13.23;;;2.20;89.50;;;;;;10357814;28;20231;-82
2021/01/16 22:06:01;;;;;;;14.23;12.73;;;2.20;89.40;;;;;;10377594;28;20285;-82
2021/01/16 22:11:02;;;;;;;16.73;13.70;;;2.10;89.80;;;;;;10366567;28;20231;-83
2021/01/16 22:16:05;;;;;;;13.97;12.33;;;2.00;90.10;;;;;;10405354;28;20260;-82
2021/01/16 22:21:07;;;;;;;26.97;21.10;;;2.10;90.30;;;;;;10381258;28;20714;-83
2021/01/16 22:26:09;;;;;;;18.17;15.33;;;2.20;90.30;;;;;;10369285;28;20682;-83
2021/01/16 22:31:11;;;;;;;14.20;12.70;;;2.30;90.20;;;;;;10367126;28;20668;-83
2021/01/16 22:36:14;;;;;;;14.97;12.20;;;2.30;89.80;;;;;;10398418;28;20771;-83
2021/01/16 22:41:15;;;;;;;15.60;13.00;;;2.30;90.10;;;;;;10389229;28;20237;-83
2021/01/16 22:46:17;;;;;;;13.63;12.03;;;2.20;90.60;;;;;;10367158;28;20436;-83
2021/01/16 22:51:26;;;;;;;14.43;12.93;;;2.10;91.90;;;;;;10375651;28;20230;-84
2021/01/16 22:56:28;;;;;;;14.10;12.30;;;2.20;92.20;;;;;;10374095;28;20219;-83
2021/01/16 23:01:29;;;;;;;14.90;12.20;;;2.10;92.90;;;;;;10348307;28;20235;-83
2021/01/16 23:06:36;;;;;;;13.93;12.10;;;2.00;93.70;;;;;;10397226;23;20627;-79
2021/01/16 23:11:38;;;;;;;15.33;12.67;;;1.90;94.70;;;;;;10336906;28;20836;-80
2021/01/16 23:16:39;;;;;;;13.20;11.40;;;1.90;95.30;;;;;;10382811;28;20241;-80
2021/01/16 23:21:42;;;;;;;13.87;11.80;;;1.80;95.10;;;;;;10334640;28;20210;-80
2021/01/16 23:26:44;;;;;;;16.83;13.60;;;1.80;96.50;;;;;;10336412;28;20246;-81
2021/01/16 23:31:46;;;;;;;16.07;13.17;;;1.80;97.10;;;;;;10345350;28;20782;-81
2021/01/16 23:36:48;;;;;;;17.23;14.17;;;1.80;97.30;;;;;;10352133;28;20388;-80
2021/01/16 23:41:51;;;;;;;15.13;12.40;;;1.80;97.50;;;;;;10352944;28;20252;-81
2021/01/16 23:46:57;;;;;;;16.40;13.27;;;1.80;97.10;;;;;;10352639;28;20218;-81
2021/01/16 23:52:00;;;;;;;15.10;12.20;;;1.70;96.80;;;;;;10369982;28;20681;-80
2021/01/16 23:57:02;;;;;;;14.10;12.40;;;1.60;96.60;;;;;;10362194;28;20356;-81
